sensor_id;sensor_type;location;lat;lon;timestamp;temperature;humidity
18103;DHT22;9178;51.120;6.192;2024-01-16T00:00:26;0.80;99.90
18103;DHT22;9178;51.120;6.192;2024-01-16T00:02:53;0.80;99.90
18103;DHT22;9178;51.120;6.192;2024-01-16T00:05:22;0.80;99.90
18103;DHT22;9178;51.120;6.192;2024-01-16T00:07:52;0.80;99.90
18103;DHT22;9178;51.120;6.192;2024-01-16T00:10:29;0.80;99.90
18103;DHT22;9178;51.120;6.192;2024-01-16T00:12:57;0.80;99.90
18103;DHT22;9178;51.120;6.192;2024-01-16T00:15:24;0.80;99.90
18103;DHT22;9178;51.120;6.192;2024-01-16T00:17:52;0.80;99.90
18103;DHT22;9178;51.120;6.192;2024-01-16T00:20:19;0.80;99.90
18103;DHT22;9178;51.120;6.192;2024-01-16T00:22:47;0.80;99.90
18103;DHT22;9178;51.120;6.192;2024-01-16T00:25:15;0.80;99.90
18103;DHT22;9178;51.120;6.192;2024-01-16T00:27:47;0.80;99.90
18103;DHT22;9178;51.120;6.192;2024-01-16T00:30:14;0.80;99.90
18103;DHT22;9178;51.120;6.192;2024-01-16T00:32:41;0.80;99.90
18103;DHT22;9178;51.120;6.192;2024-01-16T00:35:09;0.80;99.90
18103;DHT22;9178;51.120;6.192;2024-01-16T00:37:36;0.80;99.90
18103;DHT22;9178;51.120;6.192;2024-01-16T00:40:16;0.80;99.90
18103;DHT22;9178;51.120;6.192;2024-01-16T00:42:43;0.80;99.90
18103;DHT22;9178;51.120;6.192;2024-01-16T00:45:12;0.80;99.90
18103;DHT22;9178;51.120;6.192;2024-01-16T00:47:39;0.80;99.90
18103;DHT22;9178;51.120;6.192;2024-01-16T00:50:09;0.80;99.90
18103;DHT22;9178;51.120;6.192;2024-01-16T00:52:36;0.80;99.90
18103;DHT22;9178;51.120;6.192;2024-01-16T00:55:04;0.80;99.90
18103;DHT22;9178;51.120;6.192;2024-01-16T00:57:31;0.80;99.90
18103;DHT22;9178;51.120;6.192;2024-01-16T00:59:59;0.80;99.90
18103;DHT22;9178;51.120;6.192;2024-01-16T01:02:27;0.80;99.90
18103;DHT22;9178;51.120;6.192;2024-01-16T01:04:54;0.80;99.90
18103;DHT22;9178;51.120;6.192;2024-01-16T01:07:21;0.80;99.90
18103;DHT22;9178;51.120;6.192;2024-01-16T01:09:52;0.80;99.90
18103;DHT22;9178;51.120;6.192;2024-01-16T01:12:20;0.80;99.90
18103;DHT22;9178;51.120;6.192;2024-01-16T01:14:49;0.80;99.90
18103;DHT22;9178;51.120;6.192;2024-01-16T01:17:17;0.80;99.90
18103;DHT22;9178;51.120;6.192;2024-01-16T01:19:45;0.80;99.90
18103;DHT22;9178;51.120;6.192;2024-01-16T01:22:13;0.80;99.90
18103;DHT22;9178;51.120;6.192;2024-01-16T01:24:49;0.80;99.90
18103;DHT22;9178;51.120;6.192;2024-01-16T01:27:16;0.80;99.90
18103;DHT22;9178;51.120;6.192;2024-01-16T01:29:45;0.80;99.90
18103;DHT22;9178;51.120;6.192;2024-01-16T01:32:12;0.80;99.90
18103;DHT22;9178;51.120;6.192;2024-01-16T01:34:45;0.80;99.90
18103;DHT22;9178;51.120;6.192;2024-01-16T01:37:12;0.80;99.90
18103;DHT22;9178;51.120;6.192;2024-01-16T01:39:40;0.80;99.90
18103;DHT22;9178;51.120;6.192;2024-01-16T01:42:07;0.80;99.90
18103;DHT22;9178;51.120;6.192;2024-01-16T01:44:34;0.80;99.90
18103;DHT22;9178;51.120;6.192;2024-01-16T01:47:01;0.80;99.90
18103;DHT22;9178;51.120;6.192;2024-01-16T01:49:31;0.80;99.90
18103;DHT22;9178;51.120;6.192;2024-01-16T01:52:00;0.80;99.90
18103;DHT22;9178;51.120;6.192;2024-01-16T01:54:27;0.80;99.90
18103;DHT22;9178;51.120;6.192;2024-01-16T01:56:55;0.80;99.90
18103;DHT22;9178;51.120;6.192;2024-01-16T01:59:22;0.70;99.90
18103;DHT22;9178;51.120;6.192;2024-01-16T02:01:51;0.80;99.90
18103;DHT22;9178;51.120;6.192;2024-01-16T02:04:20;0.80;99.90
18103;DHT22;9178;51.120;6.192;2024-01-16T02:06:48;0.70;99.90
18103;DHT22;9178;51.120;6.192;2024-01-16T02:09:17;0.70;99.90
18103;DHT22;9178;51.120;6.192;2024-01-16T02:11:44;0.70;99.90
18103;DHT22;9178;51.120;6.192;2024-01-16T02:14:11;0.80;99.90
18103;DHT22;9178;51.120;6.192;2024-01-16T02:16:39;0.80;99.90
18103;DHT22;9178;51.120;6.192;2024-01-16T02:19:13;0.80;99.90
18103;DHT22;9178;51.120;6.192;2024-01-16T02:21:43;0.80;99.90
18103;DHT22;9178;51.120;6.192;2024-01-16T02:24:13;0.80;99.90
18103;DHT22;9178;51.120;6.192;2024-01-16T02:26:41;0.80;99.90
18103;DHT22;9178;51.120;6.192;2024-01-16T02:29:11;0.80;99.90
18103;DHT22;9178;51.120;6.192;2024-01-16T02:31:39;0.80;99.90
18103;DHT22;9178;51.120;6.192;2024-01-16T02:34:06;0.80;99.90
18103;DHT22;9178;51.120;6.192;2024-01-16T02:36:34;0.70;99.90
18103;DHT22;9178;51.120;6.192;2024-01-16T02:39:02;0.70;99.90
18103;DHT22;9178;51.120;6.192;2024-01-16T02:41:32;0.80;99.90
18103;DHT22;9178;51.120;6.192;2024-01-16T02:44:02;0.80;99.90
18103;DHT22;9178;51.120;6.192;2024-01-16T02:46:29;0.80;99.90
18103;DHT22;9178;51.120;6.192;2024-01-16T02:48:58;0.80;99.90
18103;DHT22;9178;51.120;6.192;2024-01-16T02:51:25;0.70;99.90
18103;DHT22;9178;51.120;6.192;2024-01-16T02:53:53;0.70;99.90
18103;DHT22;9178;51.120;6.192;2024-01-16T02:56:26;0.70;99.90
18103;DHT22;9178;51.120;6.192;2024-01-16T02:58:55;0.70;99.90
18103;DHT22;9178;51.120;6.192;2024-01-16T03:01:22;0.70;99.90
18103;DHT22;9178;51.120;6.192;2024-01-16T03:03:49;0.70;99.90
18103;DHT22;9178;51.120;6.192;2024-01-16T03:06:23;0.70;99.90
18103;DHT22;9178;51.120;6.192;2024-01-16T03:08:50;0.70;99.90
18103;DHT22;9178;51.120;6.192;2024-01-16T03:11:18;0.70;99.90
18103;DHT22;9178;51.120;6.192;2024-01-16T03:13:49;0.70;99.90
18103;DHT22;9178;51.120;6.192;2024-01-16T03:16:20;0.70;99.90
18103;DHT22;9178;51.120;6.192;2024-01-16T03:18:48;0.70;99.90
18103;DHT22;9178;51.120;6.192;2024-01-16T03:21:21;0.70;99.90
18103;DHT22;9178;51.120;6.192;2024-01-16T03:23:49;0.70;99.90
18103;DHT22;9178;51.120;6.192;2024-01-16T03:26:19;0.70;99.90
18103;DHT22;9178;51.120;6.192;2024-01-16T03:28:49;0.70;99.90
18103;DHT22;9178;51.120;6.192;2024-01-16T03:31:26;0.70;99.90
18103;DHT22;9178;51.120;6.192;2024-01-16T03:33:54;0.70;99.90
18103;DHT22;9178;51.120;6.192;2024-01-16T03:36:21;0.70;99.90
18103;DHT22;9178;51.120;6.192;2024-01-16T03:38:48;0.70;99.90
18103;DHT22;9178;51.120;6.192;2024-01-16T03:41:18;0.70;99.90
18103;DHT22;9178;51.120;6.192;2024-01-16T03:43:45;0.70;99.90
18103;DHT22;9178;51.120;6.192;2024-01-16T03:46:13;0.70;99.90
18103;DHT22;9178;51.120;6.192;2024-01-16T03:48:41;0.70;99.90
18103;DHT22;9178;51.120;6.192;2024-01-16T03:51:11;0.70;99.90
18103;DHT22;9178;51.120;6.192;2024-01-16T03:53:43;0.60;99.90
18103;DHT22;9178;51.120;6.192;2024-01-16T03:56:22;0.60;99.90
18103;DHT22;9178;51.120;6.192;2024-01-16T03:58:55;0.60;99.90
18103;DHT22;9178;51.120;6.192;2024-01-16T04:01:30;0.60;99.90
18103;DHT22;9178;51.120;6.192;2024-01-16T04:03:59;0.60;99.90
18103;DHT22;9178;51.120;6.192;2024-01-16T04:06:29;0.60;99.90
18103;DHT22;9178;51.120;6.192;2024-01-16T04:08:58;0.50;99.90
18103;DHT22;9178;51.120;6.192;2024-01-16T04:11:25;0.50;99.90
18103;DHT22;9178;51.120;6.192;2024-01-16T04:13:57;0.50;99.90
18103;DHT22;9178;51.120;6.192;2024-01-16T04:16:25;0.50;99.90
18103;DHT22;9178;51.120;6.192;2024-01-16T04:18:54;0.50;99.90
18103;DHT22;9178;51.120;6.192;2024-01-16T04:21:23;0.50;99.90
18103;DHT22;9178;51.120;6.192;2024-01-16T04:23:50;0.50;99.90
18103;DHT22;9178;51.120;6.192;2024-01-16T04:26:22;0.40;99.90
18103;DHT22;9178;51.120;6.192;2024-01-16T04:31:40;0.40;99.90
18103;DHT22;9178;51.120;6.192;2024-01-16T04:34:08;0.40;99.90
18103;DHT22;9178;51.120;6.192;2024-01-16T04:36:37;0.30;99.90
18103;DHT22;9178;51.120;6.192;2024-01-16T04:39:04;0.30;99.90
18103;DHT22;9178;51.120;6.192;2024-01-16T04:41:45;0.30;99.90
18103;DHT22;9178;51.120;6.192;2024-01-16T04:44:12;0.30;99.90
18103;DHT22;9178;51.120;6.192;2024-01-16T04:46:40;0.20;99.90
18103;DHT22;9178;51.120;6.192;2024-01-16T04:49:07;0.20;99.90
18103;DHT22;9178;51.120;6.192;2024-01-16T04:51:34;0.20;99.90
18103;DHT22;9178;51.120;6.192;2024-01-16T04:54:03;0.10;99.90
18103;DHT22;9178;51.120;6.192;2024-01-16T04:56:36;0.10;99.90
18103;DHT22;9178;51.120;6.192;2024-01-16T04:59:03;0.10;99.90
18103;DHT22;9178;51.120;6.192;2024-01-16T05:01:30;0.10;99.90
18103;DHT22;9178;51.120;6.192;2024-01-16T05:03:57;0.10;99.90
18103;DHT22;9178;51.120;6.192;2024-01-16T05:06:24;0.10;99.90
18103;DHT22;9178;51.120;6.192;2024-01-16T05:08:51;0.10;99.90
18103;DHT22;9178;51.120;6.192;2024-01-16T05:11:20;0.10;99.90
18103;DHT22;9178;51.120;6.192;2024-01-16T05:13:47;0.00;99.90
18103;DHT22;9178;51.120;6.192;2024-01-16T05:16:17;0.00;99.90
18103;DHT22;9178;51.120;6.192;2024-01-16T05:18:44;0.00;99.90
18103;DHT22;9178;51.120;6.192;2024-01-16T05:21:11;-0.10;99.90
18103;DHT22;9178;51.120;6.192;2024-01-16T05:23:38;-0.10;99.90
18103;DHT22;9178;51.120;6.192;2024-01-16T05:26:06;-0.10;99.90
18103;DHT22;9178;51.120;6.192;2024-01-16T05:28:34;-0.10;99.90
18103;DHT22;9178;51.120;6.192;2024-01-16T05:31:02;-0.20;99.90
18103;DHT22;9178;51.120;6.192;2024-01-16T05:33:31;-0.20;99.90
18103;DHT22;9178;51.120;6.192;2024-01-16T05:35:59;-0.20;99.90
18103;DHT22;9178;51.120;6.192;2024-01-16T05:38:26;-0.20;99.90
18103;DHT22;9178;51.120;6.192;2024-01-16T05:40:53;-0.30;99.90
18103;DHT22;9178;51.120;6.192;2024-01-16T05:43:20;-0.30;99.90
18103;DHT22;9178;51.120;6.192;2024-01-16T05:45:49;-0.30;99.90
18103;DHT22;9178;51.120;6.192;2024-01-16T05:48:17;-0.30;99.90
18103;DHT22;9178;51.120;6.192;2024-01-16T05:50:47;-0.30;99.90
18103;DHT22;9178;51.120;6.192;2024-01-16T05:53:14;-0.40;99.90
18103;DHT22;9178;51.120;6.192;2024-01-16T05:55:41;-0.40;99.90
18103;DHT22;9178;51.120;6.192;2024-01-16T05:58:15;-0.40;99.90
18103;DHT22;9178;51.120;6.192;2024-01-16T06:00:42;-0.40;99.90
18103;DHT22;9178;51.120;6.192;2024-01-16T06:03:25;-0.50;99.90
18103;DHT22;9178;51.120;6.192;2024-01-16T06:05:52;-0.50;99.90
18103;DHT22;9178;51.120;6.192;2024-01-16T06:08:20;-0.50;99.90
18103;DHT22;9178;51.120;6.192;2024-01-16T06:10:47;-0.50;99.90
18103;DHT22;9178;51.120;6.192;2024-01-16T06:13:18;-0.60;99.90
18103;DHT22;9178;51.120;6.192;2024-01-16T06:15:45;-0.60;99.90
18103;DHT22;9178;51.120;6.192;2024-01-16T06:18:13;-0.60;99.90
18103;DHT22;9178;51.120;6.192;2024-01-16T06:20:42;-0.60;99.90
18103;DHT22;9178;51.120;6.192;2024-01-16T06:23:16;-0.70;99.90
18103;DHT22;9178;51.120;6.192;2024-01-16T06:25:44;-0.70;99.90
18103;DHT22;9178;51.120;6.192;2024-01-16T06:28:11;-0.70;99.90
18103;DHT22;9178;51.120;6.192;2024-01-16T06:30:38;-0.70;99.90
18103;DHT22;9178;51.120;6.192;2024-01-16T06:33:08;-0.70;99.90
18103;DHT22;9178;51.120;6.192;2024-01-16T06:35:35;-0.80;99.90
18103;DHT22;9178;51.120;6.192;2024-01-16T06:38:04;-0.80;99.90
18103;DHT22;9178;51.120;6.192;2024-01-16T06:40:31;-0.80;99.90
18103;DHT22;9178;51.120;6.192;2024-01-16T06:42:58;-0.80;99.90
18103;DHT22;9178;51.120;6.192;2024-01-16T06:45:25;-0.80;99.90
18103;DHT22;9178;51.120;6.192;2024-01-16T06:47:53;-0.80;99.90
18103;DHT22;9178;51.120;6.192;2024-01-16T06:50:20;-0.80;99.90
18103;DHT22;9178;51.120;6.192;2024-01-16T06:52:47;-0.80;99.90
18103;DHT22;9178;51.120;6.192;2024-01-16T06:55:16;-0.80;99.90
18103;DHT22;9178;51.120;6.192;2024-01-16T06:57:43;-0.80;99.90
18103;DHT22;9178;51.120;6.192;2024-01-16T07:00:13;-0.80;99.90
18103;DHT22;9178;51.120;6.192;2024-01-16T07:02:41;-0.80;99.90
18103;DHT22;9178;51.120;6.192;2024-01-16T07:05:12;-0.80;99.90
18103;DHT22;9178;51.120;6.192;2024-01-16T07:07:40;-0.80;99.90
18103;DHT22;9178;51.120;6.192;2024-01-16T07:10:12;-0.80;99.90
18103;DHT22;9178;51.120;6.192;2024-01-16T07:12:45;-0.90;99.90
18103;DHT22;9178;51.120;6.192;2024-01-16T07:15:13;-0.90;99.90
18103;DHT22;9178;51.120;6.192;2024-01-16T07:17:41;-0.90;99.90
18103;DHT22;9178;51.120;6.192;2024-01-16T07:20:09;-0.90;99.90
18103;DHT22;9178;51.120;6.192;2024-01-16T07:22:39;-0.90;99.90
18103;DHT22;9178;51.120;6.192;2024-01-16T07:25:07;-0.90;99.90
18103;DHT22;9178;51.120;6.192;2024-01-16T07:27:35;-0.90;99.90
18103;DHT22;9178;51.120;6.192;2024-01-16T07:30:07;-0.90;99.90
18103;DHT22;9178;51.120;6.192;2024-01-16T07:32:34;-1.00;99.90
18103;DHT22;9178;51.120;6.192;2024-01-16T07:35:02;-1.00;99.90
18103;DHT22;9178;51.120;6.192;2024-01-16T07:37:30;-1.00;99.90
18103;DHT22;9178;51.120;6.192;2024-01-16T07:39:58;-1.00;99.90
18103;DHT22;9178;51.120;6.192;2024-01-16T07:42:25;-1.10;99.90
18103;DHT22;9178;51.120;6.192;2024-01-16T07:45:02;-1.10;99.90
18103;DHT22;9178;51.120;6.192;2024-01-16T07:47:32;-1.10;99.90
18103;DHT22;9178;51.120;6.192;2024-01-16T07:49:59;-1.00;99.90
18103;DHT22;9178;51.120;6.192;2024-01-16T07:52:30;-1.00;99.90
18103;DHT22;9178;51.120;6.192;2024-01-16T07:54:57;-1.00;99.90
18103;DHT22;9178;51.120;6.192;2024-01-16T07:57:24;-1.00;99.90
18103;DHT22;9178;51.120;6.192;2024-01-16T07:59:58;-1.00;99.90
18103;DHT22;9178;51.120;6.192;2024-01-16T08:02:26;-1.00;99.90
18103;DHT22;9178;51.120;6.192;2024-01-16T08:04:55;-1.00;99.90
18103;DHT22;9178;51.120;6.192;2024-01-16T08:07:25;-0.90;99.90
18103;DHT22;9178;51.120;6.192;2024-01-16T08:09:52;-0.90;99.90
18103;DHT22;9178;51.120;6.192;2024-01-16T08:12:19;-0.90;99.90
18103;DHT22;9178;51.120;6.192;2024-01-16T08:14:46;-0.90;99.90
18103;DHT22;9178;51.120;6.192;2024-01-16T08:17:13;-0.90;99.90
18103;DHT22;9178;51.120;6.192;2024-01-16T08:19:41;-0.80;99.90
18103;DHT22;9178;51.120;6.192;2024-01-16T08:22:13;-0.80;99.90
18103;DHT22;9178;51.120;6.192;2024-01-16T08:24:40;-0.70;99.90
18103;DHT22;9178;51.120;6.192;2024-01-16T08:27:07;-0.70;99.90
18103;DHT22;9178;51.120;6.192;2024-01-16T08:29:34;-0.70;99.90
18103;DHT22;9178;51.120;6.192;2024-01-16T08:32:02;-0.70;99.90
18103;DHT22;9178;51.120;6.192;2024-01-16T08:34:31;-0.60;99.90
18103;DHT22;9178;51.120;6.192;2024-01-16T08:36:58;-0.50;99.90
18103;DHT22;9178;51.120;6.192;2024-01-16T08:39:26;-0.50;99.90
18103;DHT22;9178;51.120;6.192;2024-01-16T08:41:54;-0.30;99.90
18103;DHT22;9178;51.120;6.192;2024-01-16T08:44:23;-0.30;99.90
18103;DHT22;9178;51.120;6.192;2024-01-16T08:46:50;-0.20;99.90
18103;DHT22;9178;51.120;6.192;2024-01-16T08:49:17;-0.20;99.90
18103;DHT22;9178;51.120;6.192;2024-01-16T08:51:48;-0.10;99.90
18103;DHT22;9178;51.120;6.192;2024-01-16T08:54:15;-0.10;99.90
18103;DHT22;9178;51.120;6.192;2024-01-16T08:56:47;-0.10;99.90
18103;DHT22;9178;51.120;6.192;2024-01-16T08:59:16;-0.10;99.90
18103;DHT22;9178;51.120;6.192;2024-01-16T09:01:43;-0.10;99.90
18103;DHT22;9178;51.120;6.192;2024-01-16T09:04:11;-0.10;99.90
18103;DHT22;9178;51.120;6.192;2024-01-16T09:06:48;-0.10;99.90
18103;DHT22;9178;51.120;6.192;2024-01-16T09:09:15;-0.10;99.90
18103;DHT22;9178;51.120;6.192;2024-01-16T09:11:47;0.00;99.90
18103;DHT22;9178;51.120;6.192;2024-01-16T09:14:14;0.00;99.90
18103;DHT22;9178;51.120;6.192;2024-01-16T09:16:44;0.00;99.90
18103;DHT22;9178;51.120;6.192;2024-01-16T09:19:11;0.00;99.90
18103;DHT22;9178;51.120;6.192;2024-01-16T09:21:38;0.00;99.90
18103;DHT22;9178;51.120;6.192;2024-01-16T09:24:05;0.00;99.90
18103;DHT22;9178;51.120;6.192;2024-01-16T09:26:33;0.00;99.90
18103;DHT22;9178;51.120;6.192;2024-01-16T09:29:01;0.10;99.90
18103;DHT22;9178;51.120;6.192;2024-01-16T09:31:29;0.20;99.90
18103;DHT22;9178;51.120;6.192;2024-01-16T09:33:56;0.20;99.90
18103;DHT22;9178;51.120;6.192;2024-01-16T09:36:24;0.20;99.90
18103;DHT22;9178;51.120;6.192;2024-01-16T09:38:51;0.30;99.90
18103;DHT22;9178;51.120;6.192;2024-01-16T09:41:21;0.30;99.90
18103;DHT22;9178;51.120;6.192;2024-01-16T09:43:49;0.40;99.90
18103;DHT22;9178;51.120;6.192;2024-01-16T09:46:20;0.40;99.90
18103;DHT22;9178;51.120;6.192;2024-01-16T09:48:51;0.40;99.90
18103;DHT22;9178;51.120;6.192;2024-01-16T09:51:22;0.40;99.90
18103;DHT22;9178;51.120;6.192;2024-01-16T09:53:50;0.50;99.90
18103;DHT22;9178;51.120;6.192;2024-01-16T09:56:22;0.60;99.90
18103;DHT22;9178;51.120;6.192;2024-01-16T09:58:54;0.70;99.90
18103;DHT22;9178;51.120;6.192;2024-01-16T10:01:29;0.70;99.90
18103;DHT22;9178;51.120;6.192;2024-01-16T10:03:58;0.80;99.90
18103;DHT22;9178;51.120;6.192;2024-01-16T10:06:27;0.90;99.90
18103;DHT22;9178;51.120;6.192;2024-01-16T10:08:54;0.80;99.90
18103;DHT22;9178;51.120;6.192;2024-01-16T10:11:21;0.90;99.90
18103;DHT22;9178;51.120;6.192;2024-01-16T10:13:49;0.90;99.90
18103;DHT22;9178;51.120;6.192;2024-01-16T10:16:16;0.90;99.90
18103;DHT22;9178;51.120;6.192;2024-01-16T10:18:47;0.90;99.90
18103;DHT22;9178;51.120;6.192;2024-01-16T10:21:21;1.10;99.90
18103;DHT22;9178;51.120;6.192;2024-01-16T10:23:49;1.10;99.90
18103;DHT22;9178;51.120;6.192;2024-01-16T10:26:16;1.20;99.90
18103;DHT22;9178;51.120;6.192;2024-01-16T10:28:47;1.30;99.90
18103;DHT22;9178;51.120;6.192;2024-01-16T10:31:14;1.30;99.90
18103;DHT22;9178;51.120;6.192;2024-01-16T10:34:02;1.40;99.90
18103;DHT22;9178;51.120;6.192;2024-01-16T10:36:49;1.60;99.90
18103;DHT22;9178;51.120;6.192;2024-01-16T10:39:20;1.80;99.90
18103;DHT22;9178;51.120;6.192;2024-01-16T10:41:56;1.90;99.90
18103;DHT22;9178;51.120;6.192;2024-01-16T10:44:25;2.30;99.90
18103;DHT22;9178;51.120;6.192;2024-01-16T10:47:09;2.80;99.90
18103;DHT22;9178;51.120;6.192;2024-01-16T10:49:39;3.30;99.90
18103;DHT22;9178;51.120;6.192;2024-01-16T10:52:10;3.70;99.90
18103;DHT22;9178;51.120;6.192;2024-01-16T10:54:41;3.90;99.90
18103;DHT22;9178;51.120;6.192;2024-01-16T10:57:11;3.70;99.90
18103;DHT22;9178;51.120;6.192;2024-01-16T10:59:48;3.60;99.90
18103;DHT22;9178;51.120;6.192;2024-01-16T11:02:17;3.70;99.90
18103;DHT22;9178;51.120;6.192;2024-01-16T11:04:52;4.20;99.90
18103;DHT22;9178;51.120;6.192;2024-01-16T11:07:21;4.00;99.90
18103;DHT22;9178;51.120;6.192;2024-01-16T11:09:52;3.70;99.90
18103;DHT22;9178;51.120;6.192;2024-01-16T11:12:21;3.50;99.90
18103;DHT22;9178;51.120;6.192;2024-01-16T11:14:50;3.10;99.90
18103;DHT22;9178;51.120;6.192;2024-01-16T11:17:19;2.90;99.90
18103;DHT22;9178;51.120;6.192;2024-01-16T11:19:47;3.00;99.90
18103;DHT22;9178;51.120;6.192;2024-01-16T11:22:17;3.30;99.90
18103;DHT22;9178;51.120;6.192;2024-01-16T11:24:45;3.20;99.90
18103;DHT22;9178;51.120;6.192;2024-01-16T11:27:22;3.60;99.90
18103;DHT22;9178;51.120;6.192;2024-01-16T11:29:50;3.60;99.90
18103;DHT22;9178;51.120;6.192;2024-01-16T11:32:32;3.40;99.90
18103;DHT22;9178;51.120;6.192;2024-01-16T11:34:59;3.00;99.90
18103;DHT22;9178;51.120;6.192;2024-01-16T11:37:29;2.90;99.90
18103;DHT22;9178;51.120;6.192;2024-01-16T11:42:59;2.70;99.90
18103;DHT22;9178;51.120;6.192;2024-01-16T11:45:50;2.70;99.90
18103;DHT22;9178;51.120;6.192;2024-01-16T11:48:18;2.80;99.90
18103;DHT22;9178;51.120;6.192;2024-01-16T11:50:46;3.10;99.90
18103;DHT22;9178;51.120;6.192;2024-01-16T11:53:37;3.20;99.90
18103;DHT22;9178;51.120;6.192;2024-01-16T11:56:28;3.00;99.90
18103;DHT22;9178;51.120;6.192;2024-01-16T11:59:14;2.90;99.90
18103;DHT22;9178;51.120;6.192;2024-01-16T12:01:46;3.20;99.90
18103;DHT22;9178;51.120;6.192;2024-01-16T12:04:16;3.30;99.90
18103;DHT22;9178;51.120;6.192;2024-01-16T12:06:57;3.40;99.90
18103;DHT22;9178;51.120;6.192;2024-01-16T12:09:26;3.70;99.90
18103;DHT22;9178;51.120;6.192;2024-01-16T12:11:56;4.00;99.90
18103;DHT22;9178;51.120;6.192;2024-01-16T12:14:24;4.10;99.90
18103;DHT22;9178;51.120;6.192;2024-01-16T12:16:51;4.00;99.90
18103;DHT22;9178;51.120;6.192;2024-01-16T12:19:19;3.60;99.90
18103;DHT22;9178;51.120;6.192;2024-01-16T12:21:46;3.40;99.90
18103;DHT22;9178;51.120;6.192;2024-01-16T12:24:15;3.20;99.90
18103;DHT22;9178;51.120;6.192;2024-01-16T12:26:47;3.10;99.90
18103;DHT22;9178;51.120;6.192;2024-01-16T12:29:17;2.90;99.90
18103;DHT22;9178;51.120;6.192;2024-01-16T12:31:45;2.70;99.90
18103;DHT22;9178;51.120;6.192;2024-01-16T12:34:12;2.60;99.90
18103;DHT22;9178;51.120;6.192;2024-01-16T12:36:39;2.50;99.90
18103;DHT22;9178;51.120;6.192;2024-01-16T12:39:06;2.50;99.90
18103;DHT22;9178;51.120;6.192;2024-01-16T12:41:41;2.60;99.90
18103;DHT22;9178;51.120;6.192;2024-01-16T12:44:10;2.70;99.90
18103;DHT22;9178;51.120;6.192;2024-01-16T12:46:42;2.60;99.90
18103;DHT22;9178;51.120;6.192;2024-01-16T12:49:10;2.70;99.90
18103;DHT22;9178;51.120;6.192;2024-01-16T12:51:38;2.90;99.90
18103;DHT22;9178;51.120;6.192;2024-01-16T12:54:15;3.20;99.90
18103;DHT22;9178;51.120;6.192;2024-01-16T12:56:44;3.40;99.90
18103;DHT22;9178;51.120;6.192;2024-01-16T12:59:13;3.50;99.90
18103;DHT22;9178;51.120;6.192;2024-01-16T13:01:41;3.60;99.90
18103;DHT22;9178;51.120;6.192;2024-01-16T13:04:09;3.50;99.90
18103;DHT22;9178;51.120;6.192;2024-01-16T13:06:37;3.50;99.90
18103;DHT22;9178;51.120;6.192;2024-01-16T13:09:05;3.40;99.90
18103;DHT22;9178;51.120;6.192;2024-01-16T13:11:45;3.30;99.90
18103;DHT22;9178;51.120;6.192;2024-01-16T13:14:25;3.20;99.90
18103;DHT22;9178;51.120;6.192;2024-01-16T13:16:53;3.10;99.90
18103;DHT22;9178;51.120;6.192;2024-01-16T13:19:22;3.10;99.90
18103;DHT22;9178;51.120;6.192;2024-01-16T13:21:49;3.00;99.90
18103;DHT22;9178;51.120;6.192;2024-01-16T13:24:17;3.00;99.90
18103;DHT22;9178;51.120;6.192;2024-01-16T13:26:50;3.10;99.90
18103;DHT22;9178;51.120;6.192;2024-01-16T13:29:17;3.10;99.90
18103;DHT22;9178;51.120;6.192;2024-01-16T13:31:46;3.10;99.90
18103;DHT22;9178;51.120;6.192;2024-01-16T13:34:13;3.10;99.90
18103;DHT22;9178;51.120;6.192;2024-01-16T13:36:44;2.90;99.90
18103;DHT22;9178;51.120;6.192;2024-01-16T13:39:11;2.70;99.90
18103;DHT22;9178;51.120;6.192;2024-01-16T13:41:59;2.60;99.90
18103;DHT22;9178;51.120;6.192;2024-01-16T13:44:26;2.60;99.90
18103;DHT22;9178;51.120;6.192;2024-01-16T13:46:55;2.60;99.90
18103;DHT22;9178;51.120;6.192;2024-01-16T13:49:22;2.50;99.90
18103;DHT22;9178;51.120;6.192;2024-01-16T13:51:50;2.50;99.90
18103;DHT22;9178;51.120;6.192;2024-01-16T13:54:17;2.60;99.90
18103;DHT22;9178;51.120;6.192;2024-01-16T13:56:45;2.70;99.90
18103;DHT22;9178;51.120;6.192;2024-01-16T13:59:12;2.80;99.90
18103;DHT22;9178;51.120;6.192;2024-01-16T14:01:40;2.90;99.90
18103;DHT22;9178;51.120;6.192;2024-01-16T14:04:08;3.10;99.90
18103;DHT22;9178;51.120;6.192;2024-01-16T14:06:36;3.10;99.90
18103;DHT22;9178;51.120;6.192;2024-01-16T14:09:03;3.00;99.90
18103;DHT22;9178;51.120;6.192;2024-01-16T14:11:33;2.90;99.90
18103;DHT22;9178;51.120;6.192;2024-01-16T14:14:04;2.90;99.90
18103;DHT22;9178;51.120;6.192;2024-01-16T14:16:31;2.80;99.90
18103;DHT22;9178;51.120;6.192;2024-01-16T14:18:59;2.70;99.90
18103;DHT22;9178;51.120;6.192;2024-01-16T14:21:30;2.60;99.90
18103;DHT22;9178;51.120;6.192;2024-01-16T14:24:00;2.50;99.90
18103;DHT22;9178;51.120;6.192;2024-01-16T14:26:36;2.40;99.90
18103;DHT22;9178;51.120;6.192;2024-01-16T14:29:03;2.20;99.90
18103;DHT22;9178;51.120;6.192;2024-01-16T14:31:31;2.00;99.90
18103;DHT22;9178;51.120;6.192;2024-01-16T14:33:59;1.90;99.90
18103;DHT22;9178;51.120;6.192;2024-01-16T14:36:27;1.80;99.90
18103;DHT22;9178;51.120;6.192;2024-01-16T14:38:55;1.80;99.90
18103;DHT22;9178;51.120;6.192;2024-01-16T14:41:23;1.80;99.90
18103;DHT22;9178;51.120;6.192;2024-01-16T14:43:50;1.80;99.90
18103;DHT22;9178;51.120;6.192;2024-01-16T14:46:17;1.70;99.90
18103;DHT22;9178;51.120;6.192;2024-01-16T14:48:45;1.60;99.90
18103;DHT22;9178;51.120;6.192;2024-01-16T14:51:12;1.50;99.90
18103;DHT22;9178;51.120;6.192;2024-01-16T14:53:41;1.50;99.90
18103;DHT22;9178;51.120;6.192;2024-01-16T14:56:10;1.50;99.90
18103;DHT22;9178;51.120;6.192;2024-01-16T14:58:38;1.50;99.90
18103;DHT22;9178;51.120;6.192;2024-01-16T15:01:09;1.70;99.90
18103;DHT22;9178;51.120;6.192;2024-01-16T15:03:37;1.80;99.90
18103;DHT22;9178;51.120;6.192;2024-01-16T15:06:05;1.80;99.90
18103;DHT22;9178;51.120;6.192;2024-01-16T15:08:32;1.80;99.90
18103;DHT22;9178;51.120;6.192;2024-01-16T15:10:59;1.70;99.90
18103;DHT22;9178;51.120;6.192;2024-01-16T15:13:28;1.60;99.90
18103;DHT22;9178;51.120;6.192;2024-01-16T15:15:55;1.40;99.90
18103;DHT22;9178;51.120;6.192;2024-01-16T15:18:23;1.30;99.90
18103;DHT22;9178;51.120;6.192;2024-01-16T15:20:51;1.20;99.90
18103;DHT22;9178;51.120;6.192;2024-01-16T15:23:18;1.00;99.90
18103;DHT22;9178;51.120;6.192;2024-01-16T15:25:45;0.90;99.90
18103;DHT22;9178;51.120;6.192;2024-01-16T15:28:12;0.80;99.90
18103;DHT22;9178;51.120;6.192;2024-01-16T15:30:41;0.80;99.90
18103;DHT22;9178;51.120;6.192;2024-01-16T15:33:10;0.70;99.90
18103;DHT22;9178;51.120;6.192;2024-01-16T15:35:37;0.60;99.90
18103;DHT22;9178;51.120;6.192;2024-01-16T15:38:05;0.60;99.90
18103;DHT22;9178;51.120;6.192;2024-01-16T15:40:32;0.50;99.90
18103;DHT22;9178;51.120;6.192;2024-01-16T15:43:00;0.40;99.90
18103;DHT22;9178;51.120;6.192;2024-01-16T15:45:27;0.40;99.90
18103;DHT22;9178;51.120;6.192;2024-01-16T15:47:57;0.30;99.90
18103;DHT22;9178;51.120;6.192;2024-01-16T15:50:24;0.20;99.90
18103;DHT22;9178;51.120;6.192;2024-01-16T15:52:52;0.20;99.90
18103;DHT22;9178;51.120;6.192;2024-01-16T15:55:19;0.20;99.90
18103;DHT22;9178;51.120;6.192;2024-01-16T15:57:46;0.20;99.90
18103;DHT22;9178;51.120;6.192;2024-01-16T16:00:14;0.10;99.90
18103;DHT22;9178;51.120;6.192;2024-01-16T16:02:41;0.00;99.90
18103;DHT22;9178;51.120;6.192;2024-01-16T16:05:13;0.00;99.90
18103;DHT22;9178;51.120;6.192;2024-01-16T16:07:41;-0.10;99.90
18103;DHT22;9178;51.120;6.192;2024-01-16T16:10:09;-0.10;99.90
18103;DHT22;9178;51.120;6.192;2024-01-16T16:12:36;-0.20;99.90
18103;DHT22;9178;51.120;6.192;2024-01-16T16:15:04;-0.20;99.90